sensor_id;sensor_type;location;lat;lon;timestamp;pressure;altitude;pressure_sealevel;temperature;humidity
46846;BME280;33947;46.804;134.252;2023-07-16T00:02:21;100006.63;;;16.24;86.73
46846;BME280;33947;46.804;134.252;2023-07-16T00:05:27;100007.19;;;16.29;86.85
46846;BME280;33947;46.804;134.252;2023-07-16T00:08:34;99988.94;;;16.35;86.90
46846;BME280;33947;46.804;134.252;2023-07-16T00:11:40;99997.25;;;16.31;86.87
46846;BME280;33947;46.804;134.252;2023-07-16T00:14:49;99995.78;;;16.25;87.01
46846;BME280;33947;46.804;134.252;2023-07-16T00:17:58;100005.22;;;16.32;87.35
46846;BME280;33947;46.804;134.252;2023-07-16T00:21:05;99990.22;;;16.14;88.53
46846;BME280;33947;46.804;134.252;2023-07-16T00:24:17;99980.25;;;16.16;89.34
46846;BME280;33947;46.804;134.252;2023-07-16T00:27:24;100005.22;;;16.32;89.59
46846;BME280;33947;46.804;134.252;2023-07-16T00:30:33;100010.75;;;16.29;90.23
46846;BME280;33947;46.804;134.252;2023-07-16T00:33:42;99999.53;;;16.23;90.78
46846;BME280;33947;46.804;134.252;2023-07-16T00:36:51;99981.31;;;16.13;91.01
46846;BME280;33947;46.804;134.252;2023-07-16T00:39:58;99996.16;;;15.88;92.64
46846;BME280;33947;46.804;134.252;2023-07-16T00:43:06;99988.63;;;15.95;92.11
46846;BME280;33947;46.804;134.252;2023-07-16T00:46:15;99996.31;;;16.01;92.22
46846;BME280;33947;46.804;134.252;2023-07-16T00:49:23;99954.00;;;15.76;92.79
46846;BME280;33947;46.804;134.252;2023-07-16T00:52:30;99979.91;;;15.91;93.42
46846;BME280;33947;46.804;134.252;2023-07-16T00:55:38;100002.47;;;16.18;92.69
46846;BME280;33947;46.804;134.252;2023-07-16T00:58:45;100001.84;;;15.98;93.57
46846;BME280;33947;46.804;134.252;2023-07-16T01:01:52;99996.28;;;15.85;96.62
46846;BME280;33947;46.804;134.252;2023-07-16T01:04:59;99990.44;;;15.95;95.55
46846;BME280;33947;46.804;134.252;2023-07-16T01:08:09;100001.44;;;16.20;94.41
46846;BME280;33947;46.804;134.252;2023-07-16T01:11:20;99997.25;;;16.31;93.62
46846;BME280;33947;46.804;134.252;2023-07-16T01:14:27;99986.44;;;16.32;92.01
46846;BME280;33947;46.804;134.252;2023-07-16T01:17:33;99983.06;;;16.29;92.68
46846;BME280;33947;46.804;134.252;2023-07-16T01:20:40;100004.19;;;16.19;95.48
46846;BME280;33947;46.804;134.252;2023-07-16T01:24:10;99990.41;;;16.11;96.48
46846;BME280;33947;46.804;134.252;2023-07-16T01:30:37;99975.97;;;16.13;96.45
46846;BME280;33947;46.804;134.252;2023-07-16T01:33:46;99956.31;;;15.98;97.79
46846;BME280;33947;46.804;134.252;2023-07-16T01:36:53;99985.03;;;16.11;98.04
46846;BME280;33947;46.804;134.252;2023-07-16T01:40:02;99988.22;;;16.17;97.55
46846;BME280;33947;46.804;134.252;2023-07-16T01:43:14;100000.50;;;16.36;97.32
46846;BME280;33947;46.804;134.252;2023-07-16T01:46:20;100002.59;;;16.31;97.86
46846;BME280;33947;46.804;134.252;2023-07-16T01:49:27;99997.69;;;16.23;97.61
46846;BME280;33947;46.804;134.252;2023-07-16T01:52:33;99968.03;;;16.26;97.41
46846;BME280;33947;46.804;134.252;2023-07-16T01:55:40;99987.50;;;16.44;97.13
46846;BME280;33947;46.804;134.252;2023-07-16T01:58:46;99999.03;;;16.61;96.68
46846;BME280;33947;46.804;134.252;2023-07-16T02:01:55;99983.41;;;16.53;96.85
46846;BME280;33947;46.804;134.252;2023-07-16T02:05:03;99991.94;;;16.60;96.83
46846;BME280;33947;46.804;134.252;2023-07-16T02:08:10;99999.69;;;16.64;96.53
46846;BME280;33947;46.804;134.252;2023-07-16T02:11:16;99999.22;;;16.72;96.70
46846;BME280;33947;46.804;134.252;2023-07-16T02:14:25;100014.63;;;16.99;96.12
46846;BME280;33947;46.804;134.252;2023-07-16T02:17:34;100006.94;;;17.07;96.14
46846;BME280;33947;46.804;134.252;2023-07-16T02:20:43;100012.50;;;17.04;95.39
46846;BME280;33947;46.804;134.252;2023-07-16T02:23:54;99990.41;;;16.70;97.43
46846;BME280;33947;46.804;134.252;2023-07-16T02:27:02;100005.50;;;17.02;98.24
46846;BME280;33947;46.804;134.252;2023-07-16T02:30:10;100004.84;;;17.27;96.42
46846;BME280;33947;46.804;134.252;2023-07-16T02:33:22;100001.06;;;17.44;95.79
46846;BME280;33947;46.804;134.252;2023-07-16T02:36:30;99958.25;;;17.14;95.14
46846;BME280;33947;46.804;134.252;2023-07-16T02:39:38;99997.09;;;17.50;95.76
46846;BME280;33947;46.804;134.252;2023-07-16T02:42:45;99999.84;;;17.90;94.81
46846;BME280;33947;46.804;134.252;2023-07-16T02:45:56;99990.81;;;18.06;94.04
46846;BME280;33947;46.804;134.252;2023-07-16T02:49:03;99981.50;;;18.25;93.24
46846;BME280;33947;46.804;134.252;2023-07-16T02:52:10;99995.28;;;18.46;92.25
46846;BME280;33947;46.804;134.252;2023-07-16T02:55:16;99998.00;;;18.59;91.90
46846;BME280;33947;46.804;134.252;2023-07-16T02:58:27;99991.44;;;18.63;92.33
46846;BME280;33947;46.804;134.252;2023-07-16T03:01:33;99991.81;;;18.31;93.94
46846;BME280;33947;46.804;134.252;2023-07-16T03:04:40;99979.13;;;18.33;94.39
46846;BME280;33947;46.804;134.252;2023-07-16T03:07:50;99987.34;;;18.57;93.67
46846;BME280;33947;46.804;134.252;2023-07-16T03:11:00;99987.13;;;18.73;92.00
46846;BME280;33947;46.804;134.252;2023-07-16T03:14:06;99996.38;;;18.95;91.83
46846;BME280;33947;46.804;134.252;2023-07-16T03:17:17;99983.03;;;19.06;89.69
46846;BME280;33947;46.804;134.252;2023-07-16T03:20:27;99946.97;;;18.96;88.87
46846;BME280;33947;46.804;134.252;2023-07-16T03:23:45;99956.69;;;18.99;88.36
46846;BME280;33947;46.804;134.252;2023-07-16T03:26:58;99983.22;;;19.29;87.98
46846;BME280;33947;46.804;134.252;2023-07-16T03:31:25;99958.25;;;19.27;86.69
46846;BME280;33947;46.804;134.252;2023-07-16T03:35:52;99843.69;;;18.73;85.85
46846;BME280;33947;46.804;134.252;2023-07-16T03:39:51;99843.44;;;18.89;84.64
46846;BME280;33947;46.804;134.252;2023-07-16T03:43:20;99850.75;;;18.87;84.87
46846;BME280;33947;46.804;134.252;2023-07-16T03:47:38;99869.75;;;18.59;85.51
46846;BME280;33947;46.804;134.252;2023-07-16T03:51:05;99899.97;;;18.63;85.94
46846;BME280;33947;46.804;134.252;2023-07-16T03:54:20;99940.31;;;18.89;85.55
46846;BME280;33947;46.804;134.252;2023-07-16T03:57:31;99995.72;;;19.17;85.39
46846;BME280;33947;46.804;134.252;2023-07-16T04:00:45;99968.94;;;18.90;86.25
46846;BME280;33947;46.804;134.252;2023-07-16T04:03:59;99993.94;;;19.05;86.41
46846;BME280;33947;46.804;134.252;2023-07-16T04:07:11;99991.97;;;18.94;87.22
46846;BME280;33947;46.804;134.252;2023-07-16T04:10:20;99989.38;;;18.92;87.92
46846;BME280;33947;46.804;134.252;2023-07-16T04:13:30;99989.06;;;18.97;88.03
46846;BME280;33947;46.804;134.252;2023-07-16T04:16:47;99983.47;;;19.00;88.47
46846;BME280;33947;46.804;134.252;2023-07-16T04:19:53;99863.84;;;18.02;91.11
46846;BME280;33947;46.804;134.252;2023-07-16T04:23:02;99982.63;;;18.87;91.51
46846;BME280;33947;46.804;134.252;2023-07-16T04:26:49;99994.56;;;19.08;91.04
46846;BME280;33947;46.804;134.252;2023-07-16T04:50:48;99924.59;;;18.31;94.66
46846;BME280;33947;46.804;134.252;2023-07-16T04:54:14;99864.06;;;18.12;94.94
46846;BME280;33947;46.804;134.252;2023-07-16T04:59:10;99989.28;;;18.94;94.28
46846;BME280;33947;46.804;134.252;2023-07-16T05:03:20;99867.59;;;18.26;93.49
46846;BME280;33947;46.804;134.252;2023-07-16T05:06:53;99869.84;;;18.32;94.08
46846;BME280;33947;46.804;134.252;2023-07-16T05:10:36;99992.22;;;19.04;95.03
46846;BME280;33947;46.804;134.252;2023-07-16T05:13:45;99962.28;;;18.83;95.37
46846;BME280;33947;46.804;134.252;2023-07-16T05:16:55;99985.72;;;18.93;95.24
46846;BME280;33947;46.804;134.252;2023-07-16T05:20:08;99984.66;;;18.83;95.69
46846;BME280;33947;46.804;134.252;2023-07-16T05:23:21;99972.59;;;18.76;96.87
46846;BME280;33947;46.804;134.252;2023-07-16T05:26:48;99924.31;;;18.48;97.64
46846;BME280;33947;46.804;134.252;2023-07-16T05:30:00;99879.34;;;18.37;95.93
46846;BME280;33947;46.804;134.252;2023-07-16T05:33:15;99845.25;;;18.12;96.15
46846;BME280;33947;46.804;134.252;2023-07-16T05:36:42;99802.31;;;17.85;96.28
46846;BME280;33947;46.804;134.252;2023-07-16T05:44:42;99951.50;;;18.70;98.05
46846;BME280;33947;46.804;134.252;2023-07-16T05:47:52;99964.53;;;18.89;96.76
46846;BME280;33947;46.804;134.252;2023-07-16T05:51:01;99897.63;;;18.32;98.14
46846;BME280;33947;46.804;134.252;2023-07-16T05:54:55;99972.38;;;18.66;98.53
46846;BME280;33947;46.804;134.252;2023-07-16T05:59:20;99864.91;;;18.13;97.87
46846;BME280;33947;46.804;134.252;2023-07-16T06:02:52;99893.09;;;18.07;97.62
46846;BME280;33947;46.804;134.252;2023-07-16T06:06:21;99947.31;;;18.40;98.60
46846;BME280;33947;46.804;134.252;2023-07-16T06:09:28;99982.72;;;18.59;99.04
46846;BME280;33947;46.804;134.252;2023-07-16T06:12:40;99874.66;;;17.88;98.93
46846;BME280;33947;46.804;134.252;2023-07-16T06:16:47;99826.53;;;17.44;99.21
46846;BME280;33947;46.804;134.252;2023-07-16T06:21:08;99956.97;;;18.16;100.00
46846;BME280;33947;46.804;134.252;2023-07-16T06:37:48;99862.22;;;17.59;99.89
46846;BME280;33947;46.804;134.252;2023-07-16T06:42:09;99909.97;;;17.69;100.00
46846;BME280;33947;46.804;134.252;2023-07-16T06:58:51;99972.25;;;18.29;100.00
46846;BME280;33947;46.804;134.252;2023-07-16T07:07:49;99849.34;;;17.24;100.00
46846;BME280;33947;46.804;134.252;2023-07-16T07:12:15;100027.91;;;18.41;100.00
46846;BME280;33947;46.804;134.252;2023-07-16T07:15:25;99962.97;;;18.07;100.00
46846;BME280;33947;46.804;134.252;2023-07-16T07:18:37;100026.03;;;18.42;100.00
46846;BME280;33947;46.804;134.252;2023-07-16T07:21:59;100023.13;;;18.32;100.00
46846;BME280;33947;46.804;134.252;2023-07-16T07:25:22;100029.66;;;18.28;100.00
46846;BME280;33947;46.804;134.252;2023-07-16T07:28:36;100025.97;;;18.43;100.00
46846;BME280;33947;46.804;134.252;2023-07-16T07:31:43;100021.66;;;18.54;100.00
46846;BME280;33947;46.804;134.252;2023-07-16T07:34:53;100014.34;;;18.56;100.00
46846;BME280;33947;46.804;134.252;2023-07-16T07:37:59;100023.41;;;18.68;100.00
46846;BME280;33947;46.804;134.252;2023-07-16T07:41:06;100020.28;;;18.74;100.00
46846;BME280;33947;46.804;134.252;2023-07-16T07:44:15;100018.34;;;18.76;99.98
46846;BME280;33947;46.804;134.252;2023-07-16T07:47:22;100017.28;;;18.78;100.00
46846;BME280;33947;46.804;134.252;2023-07-16T07:50:28;100027.38;;;18.75;100.00
46846;BME280;33947;46.804;134.252;2023-07-16T07:53:34;100025.97;;;18.69;100.00
46846;BME280;33947;46.804;134.252;2023-07-16T07:56:45;100031.34;;;18.69;100.00
46846;BME280;33947;46.804;134.252;2023-07-16T07:59:55;100030.28;;;18.72;100.00
46846;BME280;33947;46.804;134.252;2023-07-16T08:03:16;100025.75;;;18.72;100.00
46846;BME280;33947;46.804;134.252;2023-07-16T08:06:22;100025.56;;;18.75;100.00
46846;BME280;33947;46.804;134.252;2023-07-16T08:09:28;100038.03;;;18.63;100.00
46846;BME280;33947;46.804;134.252;2023-07-16T08:12:35;100035.88;;;18.56;100.00
46846;BME280;33947;46.804;134.252;2023-07-16T08:15:43;100046.94;;;18.51;100.00
46846;BME280;33947;46.804;134.252;2023-07-16T08:18:49;100040.47;;;18.41;100.00
46846;BME280;33947;46.804;134.252;2023-07-16T08:21:56;100040.19;;;18.58;100.00
46846;BME280;33947;46.804;134.252;2023-07-16T08:25:02;100026.28;;;18.51;100.00
46846;BME280;33947;46.804;134.252;2023-07-16T08:28:12;100013.34;;;18.44;100.00
46846;BME280;33947;46.804;134.252;2023-07-16T08:31:21;100045.22;;;18.63;100.00
46846;BME280;33947;46.804;134.252;2023-07-16T08:34:28;100053.31;;;18.63;100.00
46846;BME280;33947;46.804;134.252;2023-07-16T08:37:37;100050.81;;;18.60;100.00
46846;BME280;33947;46.804;134.252;2023-07-16T08:40:47;100048.22;;;18.45;100.00
46846;BME280;33947;46.804;134.252;2023-07-16T08:43:57;100045.63;;;18.44;100.00
46846;BME280;33947;46.804;134.252;2023-07-16T08:47:06;100052.66;;;18.59;100.00
46846;BME280;33947;46.804;134.252;2023-07-16T08:50:13;100042.31;;;18.66;100.00
46846;BME280;33947;46.804;134.252;2023-07-16T08:53:19;100053.53;;;18.73;100.00
46846;BME280;33947;46.804;134.252;2023-07-16T08:56:44;100049.78;;;18.75;100.00
46846;BME280;33947;46.804;134.252;2023-07-16T09:01:00;100025.84;;;18.58;100.00
46846;BME280;33947;46.804;134.252;2023-07-16T09:04:07;100060.34;;;18.78;100.00
46846;BME280;33947;46.804;134.252;2023-07-16T09:07:16;100061.94;;;18.81;100.00
46846;BME280;33947;46.804;134.252;2023-07-16T09:10:29;100049.56;;;18.78;100.00
46846;BME280;33947;46.804;134.252;2023-07-16T09:14:20;100066.13;;;18.85;100.00
46846;BME280;33947;46.804;134.252;2023-07-16T09:17:27;100076.81;;;18.87;100.00
46846;BME280;33947;46.804;134.252;2023-07-16T09:22:23;99959.75;;;18.15;100.00
46846;BME280;33947;46.804;134.252;2023-07-16T09:25:31;100078.41;;;18.76;100.00
46846;BME280;33947;46.804;134.252;2023-07-16T09:28:37;100078.25;;;18.65;100.00
46846;BME280;33947;46.804;134.252;2023-07-16T09:31:58;100068.22;;;18.54;100.00
46846;BME280;33947;46.804;134.252;2023-07-16T09:35:15;100084.19;;;18.57;100.00
46846;BME280;33947;46.804;134.252;2023-07-16T09:38:22;100067.13;;;18.44;100.00
46846;BME280;33947;46.804;134.252;2023-07-16T09:41:29;100087.72;;;18.58;100.00
46846;BME280;33947;46.804;134.252;2023-07-16T09:44:36;100078.34;;;18.50;100.00
46846;BME280;33947;46.804;134.252;2023-07-16T09:47:44;100066.94;;;18.47;100.00
46846;BME280;33947;46.804;134.252;2023-07-16T09:50:52;99996.50;;;18.01;100.00
46846;BME280;33947;46.804;134.252;2023-07-16T09:54:02;100056.59;;;18.41;100.00
46846;BME280;33947;46.804;134.252;2023-07-16T09:57:09;100055.28;;;18.33;100.00
46846;BME280;33947;46.804;134.252;2023-07-16T10:00:17;100100.72;;;18.51;100.00
46846;BME280;33947;46.804;134.252;2023-07-16T10:03:29;100091.03;;;18.48;100.00
46846;BME280;33947;46.804;134.252;2023-07-16T10:06:54;100049.47;;;18.27;100.00
46846;BME280;33947;46.804;134.252;2023-07-16T10:10:08;100085.25;;;18.55;100.00
46846;BME280;33947;46.804;134.252;2023-07-16T10:13:21;100074.78;;;18.50;100.00
46846;BME280;33947;46.804;134.252;2023-07-16T10:16:27;100072.09;;;18.50;100.00
46846;BME280;33947;46.804;134.252;2023-07-16T10:20:00;100093.88;;;18.60;100.00
46846;BME280;33947;46.804;134.252;2023-07-16T10:23:13;100003.63;;;18.15;100.00
46846;BME280;33947;46.804;134.252;2023-07-16T10:26:28;100053.41;;;18.48;100.00
46846;BME280;33947;46.804;134.252;2023-07-16T10:29:33;100097.44;;;18.73;100.00
46846;BME280;33947;46.804;134.252;2023-07-16T10:32:42;100053.19;;;18.51;100.00
46846;BME280;33947;46.804;134.252;2023-07-16T10:35:52;100079.34;;;18.62;100.00
46846;BME280;33947;46.804;134.252;2023-07-16T10:39:03;100094.56;;;18.76;100.00
46846;BME280;33947;46.804;134.252;2023-07-16T10:42:17;100083.97;;;18.60;100.00
46846;BME280;33947;46.804;134.252;2023-07-16T10:45:28;100112.22;;;18.80;100.00
46846;BME280;33947;46.804;134.252;2023-07-16T10:48:38;100111.13;;;18.83;100.00
46846;BME280;33947;46.804;134.252;2023-07-16T10:51:51;100112.75;;;18.86;100.00
46846;BME280;33947;46.804;134.252;2023-07-16T10:54:57;100120.91;;;18.84;100.00
46846;BME280;33947;46.804;134.252;2023-07-16T10:58:08;100120.06;;;18.84;100.00
46846;BME280;33947;46.804;134.252;2023-07-16T11:01:16;100128.34;;;18.80;100.00
46846;BME280;33947;46.804;134.252;2023-07-16T11:04:25;100121.03;;;18.83;100.00
46846;BME280;33947;46.804;134.252;2023-07-16T11:07:37;100108.31;;;18.72;100.00
46846;BME280;33947;46.804;134.252;2023-07-16T11:10:44;100125.31;;;18.85;100.00
46846;BME280;33947;46.804;134.252;2023-07-16T11:13:51;100131.47;;;18.87;100.00
46846;BME280;33947;46.804;134.252;2023-07-16T11:17:09;100106.47;;;18.72;100.00
46846;BME280;33947;46.804;134.252;2023-07-16T11:20:19;100124.69;;;18.82;100.00
46846;BME280;33947;46.804;134.252;2023-07-16T11:23:26;100128.03;;;18.85;100.00
46846;BME280;33947;46.804;134.252;2023-07-16T11:26:32;100131.38;;;18.89;100.00
46846;BME280;33947;46.804;134.252;2023-07-16T11:29:44;100137.38;;;18.92;100.00
46846;BME280;33947;46.804;134.252;2023-07-16T11:32:51;100122.75;;;18.84;100.00
46846;BME280;33947;46.804;134.252;2023-07-16T11:35:58;100148.75;;;18.98;100.00
46846;BME280;33947;46.804;134.252;2023-07-16T11:39:05;100148.94;;;18.94;100.00
46846;BME280;33947;46.804;134.252;2023-07-16T11:42:11;100113.19;;;18.79;100.00
46846;BME280;33947;46.804;134.252;2023-07-16T11:45:23;100147.66;;;19.00;100.00
46846;BME280;33947;46.804;134.252;2023-07-16T11:48:32;100136.41;;;18.93;100.00
46846;BME280;33947;46.804;134.252;2023-07-16T11:51:39;100158.75;;;19.08;100.00
46846;BME280;33947;46.804;134.252;2023-07-16T11:54:48;100126.44;;;18.95;100.00
46846;BME280;33947;46.804;134.252;2023-07-16T11:57:55;100153.28;;;19.10;100.00
46846;BME280;33947;46.804;134.252;2023-07-16T12:01:08;100042.47;;;18.37;100.00
46846;BME280;33947;46.804;134.252;2023-07-16T12:04:39;100134.81;;;18.91;100.00
46846;BME280;33947;46.804;134.252;2023-07-16T12:08:09;100090.22;;;18.61;100.00
46846;BME280;33947;46.804;134.252;2023-07-16T12:11:34;100026.72;;;18.18;100.00
46846;BME280;33947;46.804;134.252;2023-07-16T12:14:52;100082.00;;;18.49;100.00
46846;BME280;33947;46.804;134.252;2023-07-16T12:18:21;100054.78;;;18.41;100.00
46846;BME280;33947;46.804;134.252;2023-07-16T12:21:33;100123.38;;;18.74;100.00
46846;BME280;33947;46.804;134.252;2023-07-16T12:24:50;100166.63;;;19.12;100.00
46846;BME280;33947;46.804;134.252;2023-07-16T12:28:11;100137.81;;;18.86;100.00
46846;BME280;33947;46.804;134.252;2023-07-16T12:31:20;100112.94;;;18.70;100.00
46846;BME280;33947;46.804;134.252;2023-07-16T12:34:29;100179.91;;;19.15;100.00
46846;BME280;33947;46.804;134.252;2023-07-16T12:37:40;100176.44;;;19.13;100.00
46846;BME280;33947;46.804;134.252;2023-07-16T12:40:52;100154.91;;;19.00;100.00
46846;BME280;33947;46.804;134.252;2023-07-16T12:44:00;100191.31;;;19.18;100.00
46846;BME280;33947;46.804;134.252;2023-07-16T12:47:19;100154.22;;;18.96;100.00
46846;BME280;33947;46.804;134.252;2023-07-16T12:50:54;100205.53;;;19.20;100.00
46846;BME280;33947;46.804;134.252;2023-07-16T12:54:14;100073.59;;;18.41;100.00
46846;BME280;33947;46.804;134.252;2023-07-16T12:57:24;100162.97;;;19.00;100.00
46846;BME280;33947;46.804;134.252;2023-07-16T13:00:32;100175.59;;;19.12;100.00
46846;BME280;33947;46.804;134.252;2023-07-16T13:03:42;100134.81;;;18.91;100.00
46846;BME280;33947;46.804;134.252;2023-07-16T13:06:48;100143.75;;;18.91;100.00
46846;BME280;33947;46.804;134.252;2023-07-16T13:09:54;100186.69;;;19.20;100.00
46846;BME280;33947;46.804;134.252;2023-07-16T13:13:20;100149.88;;;18.93;100.00
46846;BME280;33947;46.804;134.252;2023-07-16T13:16:27;100173.19;;;19.07;100.00
46846;BME280;33947;46.804;134.252;2023-07-16T13:19:36;100190.56;;;19.16;100.00
46846;BME280;33947;46.804;134.252;2023-07-16T13:22:43;100178.78;;;19.04;100.00
46846;BME280;33947;46.804;134.252;2023-07-16T13:25:49;100175.34;;;19.02;100.00
46846;BME280;33947;46.804;134.252;2023-07-16T13:28:57;100179.00;;;19.01;100.00
46846;BME280;33947;46.804;134.252;2023-07-16T13:32:04;100197.13;;;19.12;100.00
46846;BME280;33947;46.804;134.252;2023-07-16T13:35:10;100184.63;;;19.11;100.00
46846;BME280;33947;46.804;134.252;2023-07-16T13:38:17;100185.81;;;19.07;100.00
46846;BME280;33947;46.804;134.252;2023-07-16T13:41:24;100191.41;;;19.04;100.00
46846;BME280;33947;46.804;134.252;2023-07-16T13:44:33;100153.63;;;18.78;100.00
46846;BME280;33947;46.804;134.252;2023-07-16T13:47:39;100168.50;;;18.84;100.00
46846;BME280;33947;46.804;134.252;2023-07-16T13:50:46;100192.75;;;18.97;100.00
46846;BME280;33947;46.804;134.252;2023-07-16T13:53:52;100182.59;;;18.87;100.00
46846;BME280;33947;46.804;134.252;2023-07-16T13:56:58;100187.34;;;18.84;100.00
46846;BME280;33947;46.804;134.252;2023-07-16T14:00:04;100149.59;;;18.58;100.00
46846;BME280;33947;46.804;134.252;2023-07-16T14:03:11;100218.25;;;18.91;100.00
46846;BME280;33947;46.804;134.252;2023-07-16T14:06:15;100206.72;;;18.89;100.00
46846;BME280;33947;46.804;134.252;2023-07-16T14:09:22;100207.69;;;18.88;100.00
46846;BME280;33947;46.804;134.252;2023-07-16T14:12:31;100208.66;;;18.87;100.00
46846;BME280;33947;46.804;134.252;2023-07-16T14:15:38;100195.06;;;18.75;100.00
46846;BME280;33947;46.804;134.252;2023-07-16T14:18:51;100206.28;;;18.82;100.00
46846;BME280;33947;46.804;134.252;2023-07-16T14:22:00;100194.88;;;18.78;100.00
46846;BME280;33947;46.804;134.252;2023-07-16T14:25:07;100200.88;;;18.82;100.00
46846;BME280;33947;46.804;134.252;2023-07-16T14:28:20;100205.44;;;18.82;100.00
46846;BME280;33947;46.804;134.252;2023-07-16T14:31:27;100207.56;;;18.76;100.00
46846;BME280;33947;46.804;134.252;2023-07-16T14:34:33;100211.00;;;18.78;100.00
46846;BME280;33947;46.804;134.252;2023-07-16T14:37:44;100209.28;;;18.77;100.00
46846;BME280;33947;46.804;134.252;2023-07-16T14:40:51;100213.78;;;18.77;100.00
46846;BME280;33947;46.804;134.252;2023-07-16T14:43:57;100171.53;;;18.51;100.00
46846;BME280;33947;46.804;134.252;2023-07-16T14:47:04;100214.09;;;18.72;100.00
46846;BME280;33947;46.804;134.252;2023-07-16T14:50:10;100212.28;;;18.73;100.00
46846;BME280;33947;46.804;134.252;2023-07-16T14:53:16;100216.78;;;18.72;100.00
46846;BME280;33947;46.804;134.252;2023-07-16T14:56:23;100214.41;;;18.68;100.00
46846;BME280;33947;46.804;134.252;2023-07-16T14:59:29;100208.81;;;18.71;100.00
46846;BME280;33947;46.804;134.252;2023-07-16T15:02:35;100192.06;;;18.52;100.00
46846;BME280;33947;46.804;134.252;2023-07-16T15:05:43;100212.78;;;18.65;100.00
46846;BME280;33947;46.804;134.252;2023-07-16T15:08:51;100204.91;;;18.62;100.00
46846;BME280;33947;46.804;134.252;2023-07-16T15:11:58;100191.78;;;18.57;100.00
46846;BME280;33947;46.804;134.252;2023-07-16T15:15:05;100187.53;;;18.53;100.00
46846;BME280;33947;46.804;134.252;2023-07-16T15:18:12;100202.13;;;18.63;100.00
46846;BME280;33947;46.804;134.252;2023-07-16T15:21:18;100210.28;;;18.62;100.00
46846;BME280;33947;46.804;134.252;2023-07-16T15:24:24;100206.19;;;18.56;100.00
46846;BME280;33947;46.804;134.252;2023-07-16T15:27:31;100191.94;;;18.41;100.00
46846;BME280;33947;46.804;134.252;2023-07-16T15:30:40;100213.75;;;18.64;100.00
46846;BME280;33947;46.804;134.252;2023-07-16T15:33:47;100196.69;;;18.50;100.00
46846;BME280;33947;46.804;134.252;2023-07-16T15:36:53;100219.78;;;18.68;100.00
46846;BME280;33947;46.804;134.252;2023-07-16T15:40:15;100221.03;;;18.76;100.00
46846;BME280;33947;46.804;134.252;2023-07-16T15:43:22;100226.13;;;18.66;100.00
46846;BME280;33947;46.804;134.252;2023-07-16T15:46:28;100219.31;;;18.61;100.00
46846;BME280;33947;46.804;134.252;2023-07-16T15:49:35;100225.88;;;18.57;100.00
46846;BME280;33947;46.804;134.252;2023-07-16T15:52:41;100230.09;;;18.61;100.00
46846;BME280;33947;46.804;134.252;2023-07-16T15:55:48;100214.75;;;18.48;100.00
46846;BME280;33947;46.804;134.252;2023-07-16T15:58:55;100204.97;;;18.47;100.00
46846;BME280;33947;46.804;134.252;2023-07-16T16:02:07;100232.44;;;18.52;100.00
46846;BME280;33947;46.804;134.252;2023-07-16T16:05:14;100230.69;;;18.51;100.00
46846;BME280;33947;46.804;134.252;2023-07-16T16:08:21;100236.47;;;18.45;100.00
46846;BME280;33947;46.804;134.252;2023-07-16T16:11:25;100236.47;;;18.45;100.00
46846;BME280;33947;46.804;134.252;2023-07-16T16:14:35;100239.19;;;18.45;100.00
46846;BME280;33947;46.804;134.252;2023-07-16T16:17:44;100235.53;;;18.32;100.00
46846;BME280;33947;46.804;134.252;2023-07-16T16:20:51;100243.16;;;18.25;100.00
46846;BME280;33947;46.804;134.252;2023-07-16T16:23:58;100208.81;;;18.01;100.00
46846;BME280;33947;46.804;134.252;2023-07-16T16:27:06;100248.13;;;18.17;100.00
46846;BME280;33947;46.804;134.252;2023-07-16T16:30:13;100243.44;;;18.20;100.00
46846;BME280;33947;46.804;134.252;2023-07-16T16:33:19;100226.47;;;18.05;100.00
46846;BME280;33947;46.804;134.252;2023-07-16T16:36:25;100244.59;;;18.16;100.00
46846;BME280;33947;46.804;134.252;2023-07-16T16:39:31;100239.31;;;18.15;100.00
46846;BME280;33947;46.804;134.252;2023-07-16T16:42:37;100231.75;;;18.07;100.00
46846;BME280;33947;46.804;134.252;2023-07-16T16:45:44;100239.50;;;18.12;100.00
46846;BME280;33947;46.804;134.252;2023-07-16T16:48:51;100247.09;;;18.05;100.00
46846;BME280;33947;46.804;134.252;2023-07-16T16:51:58;100223.06;;;17.87;100.00
46846;BME280;33947;46.804;134.252;2023-07-16T16:55:05;100243.03;;;17.98;100.00
46846;BME280;33947;46.804;134.252;2023-07-16T16:58:12;100228.06;;;17.93;100.00
46846;BME280;33947;46.804;134.252;2023-07-16T17:01:21;100205.13;;;17.73;100.00
46846;BME280;33947;46.804;134.252;2023-07-16T17:04:27;100213.09;;;17.75;100.00
46846;BME280;33947;46.804;134.252;2023-07-16T17:07:35;100227.50;;;17.88;100.00
46846;BME280;33947;46.804;134.252;2023-07-16T17:10:42;100230.00;;;17.77;100.00
46846;BME280;33947;46.804;134.252;2023-07-16T17:33:47;100255.63;;;17.83;100.00
46846;BME280;33947;46.804;134.252;2023-07-16T17:38:15;100251.09;;;17.83;100.00
46846;BME280;33947;46.804;134.252;2023-07-16T17:41:21;100251.97;;;17.84;100.00
46846;BME280;33947;46.804;134.252;2023-07-16T17:44:31;100201.00;;;17.53;100.00
46846;BME280;33947;46.804;134.252;2023-07-16T17:47:37;100243.22;;;17.80;100.00